sensor_id;sensor_type;location;lat;lon;timestamp;pressure;altitude;pressure_sealevel;temperature;humidity
64792;BME280;51226;47.504;19.074;2024-03-25T00:00:45;99239.50;;;9.42;50.91
64792;BME280;51226;47.504;19.074;2024-03-25T00:04:07;99243.44;;;9.26;51.38
64792;BME280;51226;47.504;19.074;2024-03-25T00:07:09;99240.78;;;9.25;51.30
64792;BME280;51226;47.504;19.074;2024-03-25T00:10:11;99241.78;;;9.30;51.04
64792;BME280;51226;47.504;19.074;2024-03-25T00:13:12;99240.03;;;9.29;51.07
64792;BME280;51226;47.504;19.074;2024-03-25T00:16:14;99235.78;;;9.33;51.13
64792;BME280;51226;47.504;19.074;2024-03-25T00:19:16;99230.66;;;9.36;50.79
64792;BME280;51226;47.504;19.074;2024-03-25T00:22:18;99239.19;;;9.30;51.02
64792;BME280;51226;47.504;19.074;2024-03-25T00:25:21;99239.50;;;9.42;50.66
64792;BME280;51226;47.504;19.074;2024-03-25T00:28:22;99231.28;;;9.27;51.05
64792;BME280;51226;47.504;19.074;2024-03-25T00:31:24;99232.06;;;9.23;51.33
64792;BME280;51226;47.504;19.074;2024-03-25T00:34:26;99226.13;;;9.28;51.08
64792;BME280;51226;47.504;19.074;2024-03-25T00:37:28;99225.06;;;9.19;51.39
64792;BME280;51226;47.504;19.074;2024-03-25T00:40:30;99228.25;;;9.08;51.71
64792;BME280;51226;47.504;19.074;2024-03-25T00:43:32;99224.56;;;9.35;51.06
64792;BME280;51226;47.504;19.074;2024-03-25T00:46:33;99222.75;;;9.31;50.97
64792;BME280;51226;47.504;19.074;2024-03-25T00:49:35;99218.28;;;9.27;51.04
64792;BME280;51226;47.504;19.074;2024-03-25T00:52:37;99226.72;;;9.17;51.42
64792;BME280;51226;47.504;19.074;2024-03-25T00:55:38;99220.47;;;9.10;51.69
64792;BME280;51226;47.504;19.074;2024-03-25T00:58:40;99220.59;;;9.15;51.51
64792;BME280;51226;47.504;19.074;2024-03-25T01:01:42;99219.06;;;9.23;51.29
64792;BME280;51226;47.504;19.074;2024-03-25T01:04:44;99221.28;;;9.07;51.68
64792;BME280;51226;47.504;19.074;2024-03-25T01:07:45;99223.13;;;9.12;51.64
64792;BME280;51226;47.504;19.074;2024-03-25T01:10:47;99222.28;;;9.13;51.67
64792;BME280;51226;47.504;19.074;2024-03-25T01:13:49;99222.44;;;9.19;51.38
64792;BME280;51226;47.504;19.074;2024-03-25T01:16:51;99212.88;;;9.18;51.33
64792;BME280;51226;47.504;19.074;2024-03-25T01:19:53;99226.63;;;9.14;51.46
64792;BME280;51226;47.504;19.074;2024-03-25T01:22:55;99218.28;;;9.25;50.93
64792;BME280;51226;47.504;19.074;2024-03-25T01:25:56;99214.09;;;9.32;50.47
64792;BME280;51226;47.504;19.074;2024-03-25T01:28:58;99221.84;;;9.29;50.45
64792;BME280;51226;47.504;19.074;2024-03-25T01:32:00;99228.78;;;9.30;50.18
64792;BME280;51226;47.504;19.074;2024-03-25T01:35:04;99218.38;;;9.30;49.99
64792;BME280;51226;47.504;19.074;2024-03-25T01:38:05;99222.13;;;9.06;50.62
64792;BME280;51226;47.504;19.074;2024-03-25T01:41:08;99224.78;;;9.08;50.59
64792;BME280;51226;47.504;19.074;2024-03-25T01:44:10;99216.87;;;9.05;50.70
64792;BME280;51226;47.504;19.074;2024-03-25T01:47:12;99217.63;;;8.99;50.87
64792;BME280;51226;47.504;19.074;2024-03-25T01:50:14;99212.50;;;9.02;50.88
64792;BME280;51226;47.504;19.074;2024-03-25T01:53:16;99209.91;;;9.02;51.01
64792;BME280;51226;47.504;19.074;2024-03-25T01:56:17;99199.47;;;9.01;51.14
64792;BME280;51226;47.504;19.074;2024-03-25T01:59:20;99200.78;;;9.20;50.76
64792;BME280;51226;47.504;19.074;2024-03-25T02:02:23;99205.69;;;9.07;50.99
64792;BME280;51226;47.504;19.074;2024-03-25T02:05:25;99204.88;;;9.10;51.06
64792;BME280;51226;47.504;19.074;2024-03-25T02:08:27;99204.09;;;9.13;50.96
64792;BME280;51226;47.504;19.074;2024-03-25T02:11:30;99209.50;;;9.22;50.52
64792;BME280;51226;47.504;19.074;2024-03-25T02:14:32;99204.09;;;9.13;50.78
64792;BME280;51226;47.504;19.074;2024-03-25T02:17:34;99207.06;;;9.28;50.35
64792;BME280;51226;47.504;19.074;2024-03-25T02:20:36;99207.38;;;9.05;50.78
64792;BME280;51226;47.504;19.074;2024-03-25T02:23:38;99210.72;;;9.01;51.03
64792;BME280;51226;47.504;19.074;2024-03-25T02:26:40;99217.53;;;8.96;51.23
64792;BME280;51226;47.504;19.074;2024-03-25T02:29:42;99205.56;;;9.03;51.01
64792;BME280;51226;47.504;19.074;2024-03-25T02:32:45;99213.47;;;9.06;50.81
64792;BME280;51226;47.504;19.074;2024-03-25T02:35:47;99200.63;;;9.12;50.62
64792;BME280;51226;47.504;19.074;2024-03-25T02:38:49;99210.28;;;9.18;50.45
64792;BME280;51226;47.504;19.074;2024-03-25T02:41:51;99213.81;;;9.21;50.19
64792;BME280;51226;47.504;19.074;2024-03-25T02:44:53;99213.25;;;9.33;49.84
64792;BME280;51226;47.504;19.074;2024-03-25T02:47:55;99205.41;;;9.32;49.79
64792;BME280;51226;47.504;19.074;2024-03-25T02:50:57;99208.66;;;9.23;49.89
64792;BME280;51226;47.504;19.074;2024-03-25T02:53:59;99208.41;;;9.14;50.27
64792;BME280;51226;47.504;19.074;2024-03-25T02:57:00;99206.72;;;9.14;50.28
64792;BME280;51226;47.504;19.074;2024-03-25T03:00:02;99204.09;;;9.13;50.28
64792;BME280;51226;47.504;19.074;2024-03-25T03:03:05;99216.22;;;9.14;50.23
64792;BME280;51226;47.504;19.074;2024-03-25T03:06:06;99225.00;;;9.17;50.25
64792;BME280;51226;47.504;19.074;2024-03-25T03:09:08;99221.47;;;9.15;50.37
64792;BME280;51226;47.504;19.074;2024-03-25T03:12:10;99224.37;;;9.27;50.05
64792;BME280;51226;47.504;19.074;2024-03-25T03:15:11;99230.09;;;9.13;50.23
64792;BME280;51226;47.504;19.074;2024-03-25T03:18:13;99235.47;;;9.19;50.19
64792;BME280;51226;47.504;19.074;2024-03-25T03:21:15;99229.63;;;9.29;49.93
64792;BME280;51226;47.504;19.074;2024-03-25T03:24:17;99239.06;;;9.24;50.04
64792;BME280;51226;47.504;19.074;2024-03-25T03:27:19;99238.09;;;9.22;50.17
64792;BME280;51226;47.504;19.074;2024-03-25T03:30:21;99239.00;;;9.22;50.21
64792;BME280;51226;47.504;19.074;2024-03-25T03:33:23;99240.94;;;9.31;50.07
64792;BME280;51226;47.504;19.074;2024-03-25T03:36:25;99237.31;;;9.24;50.30
64792;BME280;51226;47.504;19.074;2024-03-25T03:39:27;99238.50;;;9.37;50.10
64792;BME280;51226;47.504;19.074;2024-03-25T03:42:28;99243.56;;;9.68;50.47
64792;BME280;51226;47.504;19.074;2024-03-25T03:45:32;99247.25;;;9.77;49.26
64792;BME280;51226;47.504;19.074;2024-03-25T03:48:34;99246.28;;;9.74;49.05
64792;BME280;51226;47.504;19.074;2024-03-25T03:51:37;99253.28;;;9.76;48.77
64792;BME280;51226;47.504;19.074;2024-03-25T03:54:38;99256.69;;;9.72;48.87
64792;BME280;51226;47.504;19.074;2024-03-25T03:57:41;99254.53;;;9.54;49.49
64792;BME280;51226;47.504;19.074;2024-03-25T04:00:44;99254.19;;;9.78;48.48
64792;BME280;51226;47.504;19.074;2024-03-25T04:03:46;99256.81;;;9.78;48.33
64792;BME280;51226;47.504;19.074;2024-03-25T04:06:48;99254.50;;;9.91;48.62
64792;BME280;51226;47.504;19.074;2024-03-25T04:09:50;99259.47;;;9.81;48.98
64792;BME280;51226;47.504;19.074;2024-03-25T04:12:51;99256.13;;;9.86;49.22
64792;BME280;51226;47.504;19.074;2024-03-25T04:15:53;99261.50;;;9.95;49.23
64792;BME280;51226;47.504;19.074;2024-03-25T04:18:55;99257.50;;;10.09;48.39
64792;BME280;51226;47.504;19.074;2024-03-25T04:21:58;99257.00;;;10.29;47.31
64792;BME280;51226;47.504;19.074;2024-03-25T04:24:59;99260.66;;;9.94;48.30
64792;BME280;51226;47.504;19.074;2024-03-25T04:28:01;99267.19;;;9.77;48.74
64792;BME280;51226;47.504;19.074;2024-03-25T04:31:03;99269.78;;;9.77;48.89
64792;BME280;51226;47.504;19.074;2024-03-25T04:34:05;99282.00;;;9.79;48.92
64792;BME280;51226;47.504;19.074;2024-03-25T04:37:06;99277.53;;;10.13;47.82
64792;BME280;51226;47.504;19.074;2024-03-25T04:40:09;99274.34;;;9.86;48.68
64792;BME280;51226;47.504;19.074;2024-03-25T04:43:10;99277.97;;;9.94;48.75
64792;BME280;51226;47.504;19.074;2024-03-25T04:46:15;99281.50;;;9.96;48.73
64792;BME280;51226;47.504;19.074;2024-03-25T04:49:16;99275.00;;;10.16;48.14
64792;BME280;51226;47.504;19.074;2024-03-25T04:52:18;99282.19;;;9.89;48.87
64792;BME280;51226;47.504;19.074;2024-03-25T04:55:20;99291.28;;;10.06;48.31
64792;BME280;51226;47.504;19.074;2024-03-25T04:58:22;99292.78;;;10.33;47.42
64792;BME280;51226;47.504;19.074;2024-03-25T05:01:23;99294.03;;;10.14;47.84
64792;BME280;51226;47.504;19.074;2024-03-25T05:04:25;99299.81;;;9.99;48.33
64792;BME280;51226;47.504;19.074;2024-03-25T05:07:27;99297.16;;;10.35;47.63
64792;BME280;51226;47.504;19.074;2024-03-25T05:10:30;99304.53;;;10.17;48.00
64792;BME280;51226;47.504;19.074;2024-03-25T05:13:32;99306.25;;;10.15;48.08
64792;BME280;51226;47.504;19.074;2024-03-25T05:16:34;99312.53;;;10.25;47.96
64792;BME280;51226;47.504;19.074;2024-03-25T05:19:35;99309.03;;;10.23;48.05
64792;BME280;51226;47.504;19.074;2024-03-25T05:22:37;99321.91;;;10.16;48.08
64792;BME280;51226;47.504;19.074;2024-03-25T05:25:38;99317.88;;;10.31;47.61
64792;BME280;51226;47.504;19.074;2024-03-25T05:28:40;99327.22;;;10.21;47.74
64792;BME280;51226;47.504;19.074;2024-03-25T05:31:55;99334.00;;;10.51;47.02
64792;BME280;51226;47.504;19.074;2024-03-25T05:34:57;99336.22;;;10.34;47.32
64792;BME280;51226;47.504;19.074;2024-03-25T05:37:59;99345.72;;;10.32;47.45
64792;BME280;51226;47.504;19.074;2024-03-25T05:41:01;99345.13;;;10.07;48.35
64792;BME280;51226;47.504;19.074;2024-03-25T05:44:02;99351.34;;;10.50;47.58
64792;BME280;51226;47.504;19.074;2024-03-25T05:47:05;99348.25;;;10.30;48.25
64792;BME280;51226;47.504;19.074;2024-03-25T05:50:06;99344.53;;;10.17;48.96
64792;BME280;51226;47.504;19.074;2024-03-25T05:53:09;99348.00;;;10.18;49.37
64792;BME280;51226;47.504;19.074;2024-03-25T05:56:11;99348.59;;;10.43;49.11
64792;BME280;51226;47.504;19.074;2024-03-25T05:59:13;99349.53;;;10.10;50.31
64792;BME280;51226;47.504;19.074;2024-03-25T06:02:15;99352.16;;;10.10;51.07
64792;BME280;51226;47.504;19.074;2024-03-25T06:05:17;99352.19;;;10.11;51.40
64792;BME280;51226;47.504;19.074;2024-03-25T06:08:18;99351.78;;;10.31;51.09
64792;BME280;51226;47.504;19.074;2024-03-25T06:11:26;99352.75;;;9.98;51.99
64792;BME280;51226;47.504;19.074;2024-03-25T06:14:27;99346.75;;;10.02;52.01
64792;BME280;51226;47.504;19.074;2024-03-25T06:17:30;99349.62;;;10.13;51.98
64792;BME280;51226;47.504;19.074;2024-03-25T06:20:31;99347.75;;;10.07;52.24
64792;BME280;51226;47.504;19.074;2024-03-25T06:23:33;99350.50;;;10.51;51.01
64792;BME280;51226;47.504;19.074;2024-03-25T06:26:35;99355.16;;;10.66;50.22
64792;BME280;51226;47.504;19.074;2024-03-25T06:29:37;99347.56;;;10.79;50.22
64792;BME280;51226;47.504;19.074;2024-03-25T06:32:38;99356.78;;;10.61;50.42
64792;BME280;51226;47.504;19.074;2024-03-25T06:35:59;99357.50;;;10.97;49.63
64792;BME280;51226;47.504;19.074;2024-03-25T06:39:00;99360.72;;;11.29;48.96
64792;BME280;51226;47.504;19.074;2024-03-25T06:42:03;99356.03;;;11.58;48.14
64792;BME280;51226;47.504;19.074;2024-03-25T06:45:04;99362.47;;;11.79;47.78
64792;BME280;51226;47.504;19.074;2024-03-25T06:48:06;99357.78;;;12.11;46.88
64792;BME280;51226;47.504;19.074;2024-03-25T06:51:08;99369.66;;;12.50;46.02
64792;BME280;51226;47.504;19.074;2024-03-25T06:54:10;99373.31;;;12.62;46.18
64792;BME280;51226;47.504;19.074;2024-03-25T06:57:12;99370.44;;;13.12;44.42
64792;BME280;51226;47.504;19.074;2024-03-25T07:00:14;99371.38;;;13.19;43.94
64792;BME280;51226;47.504;19.074;2024-03-25T07:03:16;99374.25;;;13.39;43.32
64792;BME280;51226;47.504;19.074;2024-03-25T07:06:18;99376.13;;;13.53;43.26
64792;BME280;51226;47.504;19.074;2024-03-25T07:09:20;99374.75;;;13.96;42.54
64792;BME280;51226;47.504;19.074;2024-03-25T07:12:22;99374.84;;;14.11;42.61
64792;BME280;51226;47.504;19.074;2024-03-25T07:15:24;99374.22;;;14.48;42.26
64792;BME280;51226;47.504;19.074;2024-03-25T07:18:25;99376.97;;;14.66;41.64
64792;BME280;51226;47.504;19.074;2024-03-25T07:21:27;99368.22;;;14.64;41.84
64792;BME280;51226;47.504;19.074;2024-03-25T07:24:29;99370.09;;;14.91;40.59
64792;BME280;51226;47.504;19.074;2024-03-25T07:27:30;99380.72;;;15.24;39.90
64792;BME280;51226;47.504;19.074;2024-03-25T07:30:32;99364.97;;;15.47;38.93
64792;BME280;51226;47.504;19.074;2024-03-25T07:33:34;99377.28;;;16.28;36.94
64792;BME280;51226;47.504;19.074;2024-03-25T07:36:36;99372.84;;;16.47;36.25
64792;BME280;51226;47.504;19.074;2024-03-25T07:39:37;99381.66;;;16.51;36.18
64792;BME280;51226;47.504;19.074;2024-03-25T07:42:39;99380.81;;;16.15;36.69
64792;BME280;51226;47.504;19.074;2024-03-25T07:45:41;99386.94;;;15.69;36.99
64792;BME280;51226;47.504;19.074;2024-03-25T07:48:45;99392.84;;;14.92;38.47
64792;BME280;51226;47.504;19.074;2024-03-25T07:51:46;99394.34;;;14.49;39.41
64792;BME280;51226;47.504;19.074;2024-03-25T07:54:49;99395.41;;;14.74;38.62
64792;BME280;51226;47.504;19.074;2024-03-25T07:57:52;99390.91;;;14.57;39.02
64792;BME280;51226;47.504;19.074;2024-03-25T08:00:54;99388.91;;;14.21;40.07
64792;BME280;51226;47.504;19.074;2024-03-25T08:03:55;99394.31;;;14.42;39.97
64792;BME280;51226;47.504;19.074;2024-03-25T08:06:57;99395.47;;;14.89;38.47
64792;BME280;51226;47.504;19.074;2024-03-25T08:09:59;99392.84;;;14.89;38.49
64792;BME280;51226;47.504;19.074;2024-03-25T08:13:01;99385.94;;;15.14;38.24
64792;BME280;51226;47.504;19.074;2024-03-25T08:16:03;99401.84;;;16.36;36.36
64792;BME280;51226;47.504;19.074;2024-03-25T08:19:05;99401.53;;;17.33;34.65
64792;BME280;51226;47.504;19.074;2024-03-25T08:22:07;99405.87;;;17.42;34.26
64792;BME280;51226;47.504;19.074;2024-03-25T08:25:09;99400.81;;;17.00;34.66
64792;BME280;51226;47.504;19.074;2024-03-25T08:28:11;99401.75;;;16.68;34.52
64792;BME280;51226;47.504;19.074;2024-03-25T08:31:12;99389.59;;;15.90;36.21
64792;BME280;51226;47.504;19.074;2024-03-25T08:34:14;99401.00;;;16.11;36.41
64792;BME280;51226;47.504;19.074;2024-03-25T08:37:16;99402.50;;;17.15;34.65
64792;BME280;51226;47.504;19.074;2024-03-25T08:40:18;99395.47;;;18.43;32.13
64792;BME280;51226;47.504;19.074;2024-03-25T08:43:19;99379.69;;;19.13;30.69
64792;BME280;51226;47.504;19.074;2024-03-25T08:46:21;99384.59;;;18.70;31.63
64792;BME280;51226;47.504;19.074;2024-03-25T08:49:23;99372.91;;;18.09;31.37
64792;BME280;51226;47.504;19.074;2024-03-25T08:52:24;99385.09;;;16.77;34.03
64792;BME280;51226;47.504;19.074;2024-03-25T08:55:27;99396.59;;;16.36;34.53
64792;BME280;51226;47.504;19.074;2024-03-25T08:58:29;99373.78;;;16.20;34.71
64792;BME280;51226;47.504;19.074;2024-03-25T09:01:32;99391.34;;;15.88;35.16
64792;BME280;51226;47.504;19.074;2024-03-25T09:04:34;99389.50;;;15.44;36.05
64792;BME280;51226;47.504;19.074;2024-03-25T09:07:35;99388.66;;;15.71;36.06
64792;BME280;51226;47.504;19.074;2024-03-25T09:10:37;99388.72;;;15.99;35.68
64792;BME280;51226;47.504;19.074;2024-03-25T09:13:58;99382.56;;;16.29;35.05
64792;BME280;51226;47.504;19.074;2024-03-25T09:16:59;99376.41;;;16.38;33.58
64792;BME280;51226;47.504;19.074;2024-03-25T09:20:01;99369.34;;;16.54;33.01
64792;BME280;51226;47.504;19.074;2024-03-25T09:23:05;99374.69;;;15.88;34.54
64792;BME280;51226;47.504;19.074;2024-03-25T09:26:07;99372.00;;;15.62;35.35
64792;BME280;51226;47.504;19.074;2024-03-25T09:29:08;99372.94;;;15.93;35.26
64792;BME280;51226;47.504;19.074;2024-03-25T09:32:11;99371.72;;;17.22;33.31
64792;BME280;51226;47.504;19.074;2024-03-25T09:35:13;99367.00;;;17.75;31.95
64792;BME280;51226;47.504;19.074;2024-03-25T09:38:14;99366.34;;;17.42;32.22
64792;BME280;51226;47.504;19.074;2024-03-25T09:41:16;99383.22;;;17.10;32.75
64792;BME280;51226;47.504;19.074;2024-03-25T09:44:18;99370.97;;;17.00;32.32
64792;BME280;51226;47.504;19.074;2024-03-25T09:47:21;99374.56;;;16.74;32.35
64792;BME280;51226;47.504;19.074;2024-03-25T09:50:24;99382.56;;;16.23;35.17
64792;BME280;51226;47.504;19.074;2024-03-25T09:53:26;99381.69;;;15.98;37.04
64792;BME280;51226;47.504;19.074;2024-03-25T09:56:28;99385.97;;;15.30;37.89
64792;BME280;51226;47.504;19.074;2024-03-25T09:59:31;99381.47;;;14.92;38.53
64792;BME280;51226;47.504;19.074;2024-03-25T10:02:34;99386.63;;;14.69;39.67
64792;BME280;51226;47.504;19.074;2024-03-25T10:05:37;99384.91;;;14.81;39.70
64792;BME280;51226;47.504;19.074;2024-03-25T10:08:39;99379.03;;;15.60;37.14
64792;BME280;51226;47.504;19.074;2024-03-25T10:11:41;99387.16;;;17.81;33.27
64792;BME280;51226;47.504;19.074;2024-03-25T10:14:43;99372.38;;;19.33;30.96
64792;BME280;51226;47.504;19.074;2024-03-25T10:17:45;99363.84;;;20.75;27.29
64792;BME280;51226;47.504;19.074;2024-03-25T10:20:50;99363.44;;;21.37;26.27
64792;BME280;51226;47.504;19.074;2024-03-25T10:23:52;99353.44;;;21.50;25.46
64792;BME280;51226;47.504;19.074;2024-03-25T10:26:55;99366.75;;;21.86;24.98
64792;BME280;51226;47.504;19.074;2024-03-25T10:29:59;99355.22;;;22.55;23.66
64792;BME280;51226;47.504;19.074;2024-03-25T10:33:04;99346.63;;;23.08;23.19
64792;BME280;51226;47.504;19.074;2024-03-25T10:36:06;99351.59;;;22.58;23.76
64792;BME280;51226;47.504;19.074;2024-03-25T10:39:09;99346.94;;;21.99;24.03
64792;BME280;51226;47.504;19.074;2024-03-25T10:42:13;99352.13;;;21.68;24.15
64792;BME280;51226;47.504;19.074;2024-03-25T10:45:15;99359.38;;;21.20;24.65
64792;BME280;51226;47.504;19.074;2024-03-25T10:48:19;99349.97;;;20.63;25.74
64792;BME280;51226;47.504;19.074;2024-03-25T10:51:23;99358.88;;;20.09;27.15
64792;BME280;51226;47.504;19.074;2024-03-25T10:54:26;99356.69;;;19.21;28.29
64792;BME280;51226;47.504;19.074;2024-03-25T10:57:31;99361.09;;;18.46;29.72
64792;BME280;51226;47.504;19.074;2024-03-25T11:00:33;99366.72;;;18.09;30.00
64792;BME280;51226;47.504;19.074;2024-03-25T11:03:36;99353.78;;;17.81;30.11
64792;BME280;51226;47.504;19.074;2024-03-25T11:06:38;99352.69;;;18.07;29.57
64792;BME280;51226;47.504;19.074;2024-03-25T11:09:39;99344.94;;;19.40;28.06
64792;BME280;51226;47.504;19.074;2024-03-25T11:12:42;99342.66;;;20.75;25.84
64792;BME280;51226;47.504;19.074;2024-03-25T11:15:44;99345.53;;;20.64;25.83
64792;BME280;51226;47.504;19.074;2024-03-25T11:18:50;99354.22;;;20.22;25.78
64792;BME280;51226;47.504;19.074;2024-03-25T11:21:53;99352.81;;;19.47;26.21
64792;BME280;51226;47.504;19.074;2024-03-25T11:24:54;99359.25;;;18.54;27.93
64792;BME280;51226;47.504;19.074;2024-03-25T11:27:56;99348.50;;;17.78;30.11
64792;BME280;51226;47.504;19.074;2024-03-25T11:30:58;99359.47;;;17.15;32.79
64792;BME280;51226;47.504;19.074;2024-03-25T11:34:05;99356.88;;;17.07;33.19
64792;BME280;51226;47.504;19.074;2024-03-25T11:37:09;99352.28;;;18.47;32.42
64792;BME280;51226;47.504;19.074;2024-03-25T11:40:11;99357.94;;;20.13;29.18
64792;BME280;51226;47.504;19.074;2024-03-25T11:43:18;99369.00;;;19.84;29.16
64792;BME280;51226;47.504;19.074;2024-03-25T11:46:24;99385.78;;;19.19;29.16
64792;BME280;51226;47.504;19.074;2024-03-25T11:49:26;99377.72;;;18.52;30.14
64792;BME280;51226;47.504;19.074;2024-03-25T11:52:31;99365.38;;;17.55;32.63
64792;BME280;51226;47.504;19.074;2024-03-25T11:55:33;99369.28;;;16.70;31.95
64792;BME280;51226;47.504;19.074;2024-03-25T11:58:35;99380.75;;;16.52;32.76
64792;BME280;51226;47.504;19.074;2024-03-25T12:01:37;99378.94;;;16.84;31.81
64792;BME280;51226;47.504;19.074;2024-03-25T12:04:41;99365.91;;;18.02;30.70
64792;BME280;51226;47.504;19.074;2024-03-25T12:07:43;99367.41;;;19.12;28.57
64792;BME280;51226;47.504;19.074;2024-03-25T12:10:45;99364.00;;;19.64;27.93
64792;BME280;51226;47.504;19.074;2024-03-25T12:14:05;99351.38;;;19.85;27.36
64792;BME280;51226;47.504;19.074;2024-03-25T12:17:07;99345.59;;;18.93;28.66
64792;BME280;51226;47.504;19.074;2024-03-25T12:20:09;99360.53;;;18.18;29.67
64792;BME280;51226;47.504;19.074;2024-03-25T12:23:12;99376.84;;;17.51;31.34
64792;BME280;51226;47.504;19.074;2024-03-25T12:26:14;99373.66;;;16.86;33.20
64792;BME280;51226;47.504;19.074;2024-03-25T12:29:16;99395.69;;;16.46;34.58
64792;BME280;51226;47.504;19.074;2024-03-25T12:32:17;99385.22;;;15.91;36.60
64792;BME280;51226;47.504;19.074;2024-03-25T12:35:19;99383.41;;;15.71;37.43
64792;BME280;51226;47.504;19.074;2024-03-25T12:38:24;99371.19;;;16.07;37.10
64792;BME280;51226;47.504;19.074;2024-03-25T12:41:26;99384.03;;;17.18;35.07
64792;BME280;51226;47.504;19.074;2024-03-25T12:44:28;99372.91;;;18.11;33.44
64792;BME280;51226;47.504;19.074;2024-03-25T12:47:30;99378.91;;;18.25;32.65
64792;BME280;51226;47.504;19.074;2024-03-25T12:50:34;99378.28;;;17.95;32.61
64792;BME280;51226;47.504;19.074;2024-03-25T12:53:37;99382.44;;;18.24;32.79
64792;BME280;51226;47.504;19.074;2024-03-25T12:56:38;99394.56;;;18.44;32.05
64792;BME280;51226;47.504;19.074;2024-03-25T12:59:40;99394.06;;;18.03;32.48
64792;BME280;51226;47.504;19.074;2024-03-25T13:02:42;99391.63;;;17.72;32.01
64792;BME280;51226;47.504;19.074;2024-03-25T13:05:44;99397.22;;;17.18;32.87
64792;BME280;51226;47.504;19.074;2024-03-25T13:08:45;99392.94;;;16.83;34.61
64792;BME280;51226;47.504;19.074;2024-03-25T13:11:47;99395.62;;;16.63;35.42
64792;BME280;51226;47.504;19.074;2024-03-25T13:14:49;99395.72;;;16.06;37.01
64792;BME280;51226;47.504;19.074;2024-03-25T13:17:51;99399.22;;;15.87;37.18
64792;BME280;51226;47.504;19.074;2024-03-25T13:20:52;99396.56;;;15.64;37.86
64792;BME280;51226;47.504;19.074;2024-03-25T13:23:54;99406.16;;;15.45;38.28
64792;BME280;51226;47.504;19.074;2024-03-25T13:26:56;99414.06;;;15.57;37.87
64792;BME280;51226;47.504;19.074;2024-03-25T13:29:58;99403.56;;;15.57;37.58
64792;BME280;51226;47.504;19.074;2024-03-25T13:32:59;99407.13;;;15.82;36.26
64792;BME280;51226;47.504;19.074;2024-03-25T13:36:03;99393.97;;;15.96;35.82
64792;BME280;51226;47.504;19.074;2024-03-25T13:39:04;99399.25;;;15.95;36.12
64792;BME280;51226;47.504;19.074;2024-03-25T13:42:06;99389.59;;;15.92;35.64
64792;BME280;51226;47.504;19.074;2024-03-25T13:45:08;99394.78;;;15.60;36.50
64792;BME280;51226;47.504;19.074;2024-03-25T13:48:10;99386.88;;;15.38;36.94
64792;BME280;51226;47.504;19.074;2024-03-25T13:51:11;99395.69;;;15.69;35.98
64792;BME280;51226;47.504;19.074;2024-03-25T13:54:13;99399.91;;;15.03;37.44
64792;BME280;51226;47.504;19.074;2024-03-25T13:57:15;99404.31;;;15.17;37.17
64792;BME280;51226;47.504;19.074;2024-03-25T14:00:17;99411.34;;;15.17;36.54
64792;BME280;51226;47.504;19.074;2024-03-25T14:03:19;99408.78;;;15.43;35.94
64792;BME280;51226;47.504;19.074;2024-03-25T14:06:21;99400.09;;;15.78;35.62
64792;BME280;51226;47.504;19.074;2024-03-25T14:09:24;99394.72;;;16.77;33.64
64792;BME280;51226;47.504;19.074;2024-03-25T14:12:25;99392.03;;;17.01;32.90
64792;BME280;51226;47.504;19.074;2024-03-25T14:15:27;99378.69;;;17.35;31.73
64792;BME280;51226;47.504;19.074;2024-03-25T14:18:29;99378.53;;;17.57;31.45
64792;BME280;51226;47.504;19.074;2024-03-25T14:21:32;99367.09;;;17.63;31.01
64792;BME280;51226;47.504;19.074;2024-03-25T14:24:34;99369.88;;;17.41;30.28
64792;BME280;51226;47.504;19.074;2024-03-25T14:27:35;99367.44;;;17.04;30.35
64792;BME280;51226;47.504;19.074;2024-03-25T14:30:37;99377.13;;;16.83;30.22
64792;BME280;51226;47.504;19.074;2024-03-25T14:33:39;99376.22;;;17.00;30.13
64792;BME280;51226;47.504;19.074;2024-03-25T14:36:41;99380.56;;;17.12;29.91
64792;BME280;51226;47.504;19.074;2024-03-25T14:39:42;99366.44;;;17.22;29.81
64792;BME280;51226;47.504;19.074;2024-03-25T14:42:44;99378.78;;;17.20;29.82
64792;BME280;51226;47.504;19.074;2024-03-25T14:45:46;99368.09;;;17.43;29.54
64792;BME280;51226;47.504;19.074;2024-03-25T14:48:48;99372.69;;;17.06;30.20
64792;BME280;51226;47.504;19.074;2024-03-25T14:51:50;99374.53;;;16.87;30.51
64792;BME280;51226;47.504;19.074;2024-03-25T14:54:51;99367.53;;;16.72;30.92
64792;BME280;51226;47.504;19.074;2024-03-25T14:57:53;99365.75;;;16.78;30.56
64792;BME280;51226;47.504;19.074;2024-03-25T15:00:55;99369.34;;;16.51;31.03
64792;BME280;51226;47.504;19.074;2024-03-25T15:03:57;99366.78;;;16.34;31.19
64792;BME280;51226;47.504;19.074;2024-03-25T15:06:58;99362.38;;;16.33;31.36
64792;BME280;51226;47.504;19.074;2024-03-25T15:10:00;99365.91;;;16.15;32.40
64792;BME280;51226;47.504;19.074;2024-03-25T15:13:02;99358.88;;;15.69;32.89
64792;BME280;51226;47.504;19.074;2024-03-25T15:16:04;99359.78;;;15.76;33.31
64792;BME280;51226;47.504;19.074;2024-03-25T15:19:06;99365.88;;;15.64;34.21
64792;BME280;51226;47.504;19.074;2024-03-25T15:22:10;99374.59;;;15.32;35.13
64792;BME280;51226;47.504;19.074;2024-03-25T15:25:12;99373.69;;;15.18;35.91
64792;BME280;51226;47.504;19.074;2024-03-25T15:28:13;99372.78;;;15.10;36.12
64792;BME280;51226;47.504;19.074;2024-03-25T15:31:15;99370.13;;;15.02;36.63
64792;BME280;51226;47.504;19.074;2024-03-25T15:34:17;99374.47;;;14.92;36.80
64792;BME280;51226;47.504;19.074;2024-03-25T15:37:19;99366.59;;;14.89;36.59
64792;BME280;51226;47.504;19.074;2024-03-25T15:40:21;99366.53;;;14.80;36.74
64792;BME280;51226;47.504;19.074;2024-03-25T15:43:23;99367.47;;;14.91;36.39
64792;BME280;51226;47.504;19.074;2024-03-25T15:46:25;99373.50;;;14.69;36.77
64792;BME280;51226;47.504;19.074;2024-03-25T15:49:27;99374.28;;;14.55;37.05
64792;BME280;51226;47.504;19.074;2024-03-25T15:52:29;99377.78;;;14.57;37.09
64792;BME280;51226;47.504;19.074;2024-03-25T15:55:30;99384.84;;;14.64;36.54